Time,TemperatureF,DewpointF,PressureIn,WindDirection,WindDirectionDegrees,WindSpeedMPH,WindSpeedGustMPH,Humidity,HourlyPrecipIn,Conditions,Clouds,dailyrainin,SolarRadiationWatts/m^2,SoftwareType,DateUTC
2013-06-23 00:11:00,40.0,26.0,-100.00,ESE,114,35.0,43.0,57,0.00,,,0.00,7.100000,,2013-06-23 08:11:00,
2013-06-23 00:22:00,40.0,26.0,-100.00,ESE,114,35.0,43.0,57,0.00,,,0.00,7.100000,,2013-06-23 08:22:00,
2013-06-23 00:33:00,40.0,26.0,-100.00,ESE,114,35.0,43.0,57,0.00,,,0.00,7.100000,,2013-06-23 08:33:00,
2013-06-23 00:42:00,40.0,26.0,-100.00,ESE,114,35.0,43.0,57,0.00,,,0.00,7.100000,,2013-06-23 08:42:00,
2013-06-23 00:43:00,40.0,30.0,-100.00,East,101,26.0,50.0,67,0.00,,,-99.99,0.000000,,2013-06-23 08:43:00,
2013-06-23 01:02:00,40.0,30.0,-100.00,East,101,26.0,50.0,67,0.00,,,-99.99,0.000000,,2013-06-23 09:02:00,
2013-06-23 01:12:00,40.0,30.0,-100.00,East,101,26.0,50.0,67,0.00,,,-99.99,0.000000,,2013-06-23 09:12:00,
2013-06-23 01:22:00,40.0,30.0,-100.00,East,101,26.0,50.0,67,0.00,,,-99.99,0.000000,,2013-06-23 09:22:00,
2013-06-23 01:34:00,40.0,30.0,-100.00,East,101,26.0,50.0,67,0.00,,,-99.99,0.000000,,2013-06-23 09:34:00,
2013-06-23 01:43:00,38.0,29.0,-100.00,East,98,22.0,40.0,69,0.00,,,0.00,0.000000,,2013-06-23 09:43:00,
2013-06-23 02:02:00,38.0,29.0,-100.00,East,98,22.0,40.0,69,0.00,,,0.00,0.000000,,2013-06-23 10:02:00,
2013-06-23 02:11:00,38.0,29.0,-100.00,East,98,22.0,40.0,69,0.00,,,0.00,0.000000,,2013-06-23 10:11:00,
2013-06-23 02:22:00,38.0,29.0,-100.00,East,98,22.0,40.0,69,0.00,,,0.00,0.000000,,2013-06-23 10:22:00,
2013-06-23 02:34:00,38.0,29.0,-100.00,East,98,22.0,40.0,69,0.00,,,0.00,0.000000,,2013-06-23 10:34:00,
2013-06-23 02:43:00,38.0,29.0,-100.00,ESE,111,22.0,31.0,69,0.00,,,0.00,0.000000,,2013-06-23 10:43:00,
2013-06-23 03:11:00,38.0,29.0,-100.00,ESE,111,22.0,31.0,69,0.00,,,0.00,0.000000,,2013-06-23 11:11:00,
2013-06-23 03:22:00,38.0,29.0,-100.00,ESE,111,22.0,31.0,69,0.00,,,0.00,0.000000,,2013-06-23 11:22:00,
2013-06-23 03:33:00,38.0,29.0,-100.00,ESE,111,22.0,31.0,69,0.00,,,0.00,0.000000,,2013-06-23 11:33:00,
2013-06-23 04:12:00,39.0,27.0,-100.00,East,101,24.0,42.0,63,0.00,,,0.00,0.000000,,2013-06-23 12:12:00,
2013-06-23 04:22:00,39.0,27.0,-100.00,East,101,24.0,42.0,63,0.00,,,0.00,0.000000,,2013-06-23 12:22:00,
2013-06-23 04:33:00,39.0,27.0,-100.00,East,101,24.0,42.0,63,0.00,,,0.00,0.000000,,2013-06-23 12:33:00,
2013-06-23 04:42:00,39.0,27.0,-100.00,East,101,24.0,42.0,63,0.00,,,0.00,0.000000,,2013-06-23 12:42:00,
2013-06-23 04:43:00,35.0,32.0,-100.00,East,87,18.0,39.0,89,0.00,,,0.00,2.900000,,2013-06-23 12:43:00,
2013-06-23 05:11:00,35.0,32.0,-100.00,East,87,18.0,39.0,89,0.00,,,0.00,2.900000,,2013-06-23 13:11:00,
2013-06-23 05:23:00,35.0,32.0,-100.00,East,87,18.0,39.0,89,0.00,,,0.00,2.900000,,2013-06-23 13:23:00,
2013-06-23 05:33:00,35.0,32.0,-100.00,East,87,18.0,39.0,89,0.00,,,0.00,2.900000,,2013-06-23 13:33:00,
2013-06-23 05:43:00,35.0,32.0,-100.00,East,88,18.0,32.0,88,0.00,,,0.00,11.300000,,2013-06-23 13:43:00,
2013-06-23 06:11:00,35.0,32.0,-100.00,East,88,18.0,32.0,88,0.00,,,0.00,11.300000,,2013-06-23 14:11:00,
2013-06-23 06:22:00,35.0,32.0,-100.00,East,88,18.0,32.0,88,0.00,,,0.00,11.300000,,2013-06-23 14:22:00,
2013-06-23 06:34:00,35.0,32.0,-100.00,East,88,18.0,32.0,88,0.00,,,0.00,11.300000,,2013-06-23 14:34:00,
2013-06-23 06:43:00,34.0,33.0,-100.00,East,95,15.0,27.0,95,0.00,,,0.00,36.500000,,2013-06-23 14:43:00,
2013-06-23 07:11:00,34.0,33.0,-100.00,East,95,15.0,27.0,95,0.00,,,0.00,36.500000,,2013-06-23 15:11:00,
2013-06-23 07:22:00,34.0,33.0,-100.00,East,95,15.0,27.0,95,0.00,,,0.00,36.500000,,2013-06-23 15:22:00,
2013-06-23 07:35:00,34.0,33.0,-100.00,East,95,15.0,27.0,95,0.00,,,0.00,36.500000,,2013-06-23 15:35:00,
2013-06-23 08:11:00,35.0,34.0,-100.00,East,98,15.0,22.0,96,0.00,,,0.00,67.300003,,2013-06-23 16:11:00,
2013-06-23 08:22:00,35.0,34.0,-100.00,East,98,15.0,22.0,96,0.00,,,0.00,67.300003,,2013-06-23 16:22:00,
2013-06-23 08:36:00,35.0,34.0,-100.00,East,98,15.0,22.0,96,0.00,,,0.00,67.300003,,2013-06-23 16:36:00,
2013-06-23 08:42:00,35.0,34.0,-100.00,East,98,15.0,22.0,96,0.00,,,0.00,67.300003,,2013-06-23 16:42:00,
2013-06-23 08:43:00,35.0,34.0,-100.00,East,95,15.0,17.0,97,0.00,,,0.00,130.100006,,2013-06-23 16:43:00,
2013-06-23 09:11:00,35.0,34.0,-100.00,East,95,15.0,17.0,97,0.00,,,0.00,130.100006,,2013-06-23 17:11:00,
2013-06-23 09:22:00,35.0,34.0,-100.00,East,95,15.0,17.0,97,0.00,,,0.00,130.100006,,2013-06-23 17:22:00,
2013-06-23 09:33:00,35.0,34.0,-100.00,East,95,15.0,17.0,97,0.00,,,0.00,130.100006,,2013-06-23 17:33:00,
2013-06-23 10:11:00,35.0,33.0,-100.00,East,99,15.0,17.0,93,0.00,,,0.00,231.699997,,2013-06-23 18:11:00,
2013-06-23 10:22:00,35.0,33.0,-100.00,East,99,15.0,17.0,93,0.00,,,0.00,231.699997,,2013-06-23 18:22:00,
2013-06-23 10:34:00,35.0,33.0,-100.00,East,99,15.0,17.0,93,0.00,,,0.00,231.699997,,2013-06-23 18:34:00,
2013-06-23 10:42:00,35.0,33.0,-100.00,East,99,15.0,17.0,93,0.00,,,0.00,231.699997,,2013-06-23 18:42:00,
2013-06-23 10:43:00,36.0,33.0,-100.00,East,97,15.0,17.0,90,0.00,,,0.00,318.600006,,2013-06-23 18:43:00,
2013-06-23 11:11:00,36.0,33.0,-100.00,East,97,15.0,17.0,90,0.00,,,0.00,318.600006,,2013-06-23 19:11:00,
2013-06-23 11:21:00,36.0,33.0,-100.00,East,97,15.0,17.0,90,0.00,,,0.00,318.600006,,2013-06-23 19:21:00,
2013-06-23 11:32:00,36.0,33.0,-100.00,East,97,15.0,17.0,90,0.00,,,0.00,318.600006,,2013-06-23 19:32:00,
2013-06-23 12:12:00,36.0,33.0,-100.00,East,99,17.0,19.0,88,0.00,,,0.00,477.799988,,2013-06-23 20:12:00,
2013-06-23 12:24:00,36.0,33.0,-100.00,East,99,17.0,19.0,88,0.00,,,0.00,477.799988,,2013-06-23 20:24:00,
2013-06-23 12:33:00,36.0,33.0,-100.00,East,99,17.0,19.0,88,0.00,,,0.00,477.799988,,2013-06-23 20:33:00,
2013-06-23 12:42:00,36.0,33.0,-100.00,East,99,17.0,19.0,88,0.00,,,0.00,477.799988,,2013-06-23 20:42:00,
2013-06-23 12:43:00,36.0,33.0,-100.00,East,96,17.0,20.0,88,0.00,,,0.00,508.200012,,2013-06-23 20:43:00,
2013-06-23 13:11:00,36.0,33.0,-100.00,East,96,17.0,20.0,88,0.00,,,0.00,508.200012,,2013-06-23 21:11:00,
2013-06-23 13:22:00,36.0,33.0,-100.00,East,96,17.0,20.0,88,0.00,,,0.00,508.200012,,2013-06-23 21:22:00,
2013-06-23 13:33:00,36.0,33.0,-100.00,East,96,17.0,20.0,88,0.00,,,0.00,508.200012,,2013-06-23 21:33:00,
2013-06-23 13:43:00,36.0,34.0,-100.00,East,96,17.0,19.0,92,0.00,,,0.00,533.099976,,2013-06-23 21:43:00,
2013-06-23 14:11:00,36.0,34.0,-100.00,East,96,17.0,19.0,92,0.00,,,0.00,533.099976,,2013-06-23 22:11:00,
2013-06-23 14:22:00,36.0,34.0,-100.00,East,96,17.0,19.0,92,0.00,,,0.00,533.099976,,2013-06-23 22:22:00,
2013-06-23 14:32:00,36.0,34.0,-100.00,East,96,17.0,19.0,92,0.00,,,0.00,533.099976,,2013-06-23 22:32:00,
2013-06-23 14:43:00,37.0,35.0,-100.00,East,93,18.0,19.0,94,0.00,,,0.00,447.799988,,2013-06-23 22:43:00,
2013-06-23 15:01:00,37.0,35.0,-100.00,East,93,18.0,19.0,94,0.00,,,0.00,447.799988,,2013-06-23 23:01:00,
2013-06-23 15:11:00,37.0,35.0,-100.00,East,93,18.0,19.0,94,0.00,,,0.00,447.799988,,2013-06-23 23:11:00,
2013-06-23 15:22:00,37.0,35.0,-100.00,East,93,18.0,19.0,94,0.00,,,0.00,447.799988,,2013-06-23 23:22:00,
2013-06-23 15:33:00,37.0,35.0,-100.00,East,93,18.0,19.0,94,0.00,,,0.00,447.799988,,2013-06-23 23:33:00,
2013-06-23 16:01:00,37.0,36.0,-100.00,East,94,14.0,20.0,95,0.00,,,0.00,448.399994,,2013-06-24 00:01:00,
2013-06-23 16:11:00,37.0,36.0,-100.00,East,94,14.0,20.0,95,0.00,,,0.00,448.399994,,2013-06-24 00:11:00,
2013-06-23 16:22:00,37.0,36.0,-100.00,East,94,14.0,20.0,95,0.00,,,0.00,448.399994,,2013-06-24 00:22:00,
2013-06-23 16:33:00,37.0,36.0,-100.00,East,94,14.0,20.0,95,0.00,,,0.00,448.399994,,2013-06-24 00:33:00,
2013-06-23 16:42:00,37.0,36.0,-100.00,East,94,14.0,20.0,95,0.00,,,0.00,448.399994,,2013-06-24 00:42:00,
2013-06-23 17:11:00,38.0,37.0,-100.00,East,96,17.0,17.0,95,0.00,,,0.00,533.200012,,2013-06-24 01:11:00,
2013-06-23 17:22:00,38.0,37.0,-100.00,East,96,17.0,17.0,95,0.00,,,0.00,533.200012,,2013-06-24 01:22:00,
2013-06-23 17:32:00,38.0,37.0,-100.00,East,96,17.0,17.0,95,0.00,,,0.00,533.200012,,2013-06-24 01:32:00,
2013-06-23 17:42:00,38.0,37.0,-100.00,East,96,17.0,17.0,95,0.00,,,0.00,533.200012,,2013-06-24 01:42:00,
2013-06-23 18:01:00,38.0,36.0,-100.00,East,92,17.0,19.0,93,0.00,,,0.00,546.500000,,2013-06-24 02:01:00,
2013-06-23 18:11:00,38.0,36.0,-100.00,East,92,17.0,19.0,93,0.00,,,0.00,546.500000,,2013-06-24 02:11:00,
2013-06-23 18:21:00,38.0,36.0,-100.00,East,92,17.0,19.0,93,0.00,,,0.00,546.500000,,2013-06-24 02:21:00,
2013-06-23 18:33:00,38.0,36.0,-100.00,East,92,17.0,19.0,93,0.00,,,0.00,546.500000,,2013-06-24 02:33:00,
2013-06-23 18:42:00,38.0,36.0,-100.00,East,92,17.0,19.0,93,0.00,,,0.00,546.500000,,2013-06-24 02:42:00,
2013-06-23 19:01:00,39.0,37.0,-100.00,East,92,16.0,20.0,92,0.00,,,0.00,399.399994,,2013-06-24 03:01:00,
2013-06-23 19:11:00,39.0,37.0,-100.00,East,92,16.0,20.0,92,0.00,,,0.00,399.399994,,2013-06-24 03:11:00,
2013-06-23 19:22:00,39.0,37.0,-100.00,East,92,16.0,20.0,92,0.00,,,0.00,399.399994,,2013-06-24 03:22:00,
2013-06-23 19:33:00,39.0,37.0,-100.00,East,92,16.0,20.0,92,0.00,,,0.00,399.399994,,2013-06-24 03:33:00,
2013-06-23 19:42:00,39.0,37.0,-100.00,East,92,16.0,20.0,92,0.00,,,0.00,399.399994,,2013-06-24 03:42:00,
2013-06-23 19:43:00,40.0,36.0,-100.00,East,98,14.0,17.0,85,0.00,,,0.00,303.799988,,2013-06-24 03:43:00,
2013-06-23 20:11:00,40.0,36.0,-100.00,East,98,14.0,17.0,85,0.00,,,0.00,303.799988,,2013-06-24 04:11:00,
2013-06-23 20:22:00,40.0,36.0,-100.00,East,98,14.0,17.0,85,0.00,,,0.00,303.799988,,2013-06-24 04:22:00,
2013-06-23 20:33:00,40.0,36.0,-100.00,East,98,14.0,17.0,85,0.00,,,0.00,303.799988,,2013-06-24 04:33:00,
2013-06-23 20:43:00,39.0,37.0,-100.00,East,101,14.0,16.0,91,0.00,,,0.00,164.500000,,2013-06-24 04:43:00,
2013-06-23 21:12:00,39.0,37.0,-100.00,East,101,14.0,16.0,91,0.00,,,0.00,164.500000,,2013-06-24 05:12:00,
2013-06-23 21:22:00,39.0,37.0,-100.00,East,101,14.0,16.0,91,0.00,,,0.00,164.500000,,2013-06-24 05:22:00,
2013-06-23 21:34:00,39.0,37.0,-100.00,East,101,14.0,16.0,91,0.00,,,0.00,164.500000,,2013-06-24 05:34:00,
2013-06-23 21:43:00,39.0,36.0,-100.00,East,94,16.0,16.0,89,0.00,,,0.00,123.500000,,2013-06-24 05:43:00,
2013-06-23 22:12:00,39.0,36.0,-100.00,East,94,16.0,16.0,89,0.00,,,0.00,123.500000,,2013-06-24 06:12:00,
2013-06-23 22:22:00,39.0,36.0,-100.00,East,94,16.0,16.0,89,0.00,,,0.00,123.500000,,2013-06-24 06:22:00,
2013-06-23 22:34:00,39.0,36.0,-100.00,East,94,16.0,16.0,89,0.00,,,0.00,123.500000,,2013-06-24 06:34:00,
2013-06-23 22:43:00,39.0,36.0,-100.00,East,95,17.0,20.0,87,0.00,,,0.00,49.599998,,2013-06-24 06:43:00,
2013-06-23 23:13:00,39.0,36.0,-100.00,East,95,17.0,20.0,87,0.00,,,0.00,49.599998,,2013-06-24 07:13:00,
2013-06-23 23:34:00,39.0,36.0,-100.00,East,95,17.0,20.0,87,0.00,,,0.00,49.599998,,2013-06-24 07:34:00,
2013-06-23 23:43:00,39.0,36.0,-100.00,ESE,103,15.0,24.0,89,0.00,,,0.00,11.400000,,2013-06-24 07:43:00,